createdAt,value
2017-07-14T00:00:12.830Z,998.5
2017-07-14T00:00:33.137Z,998.5
2017-07-14T00:00:53.401Z,998.5
2017-07-14T00:01:13.694Z,998.5
2017-07-14T00:01:33.956Z,998.5
2017-07-14T00:01:54.223Z,998.5
2017-07-14T00:02:14.473Z,998.4
2017-07-14T00:02:34.767Z,998.4
2017-07-14T00:02:55.029Z,998.4
2017-07-14T00:03:15.356Z,998.4
2017-07-14T00:03:35.668Z,998.4
2017-07-14T00:03:55.982Z,998.4
2017-07-14T00:04:16.247Z,998.4
2017-07-14T00:04:36.555Z,998.4
2017-07-14T00:04:56.887Z,998.4
2017-07-14T00:05:17.140Z,998.4
2017-07-14T00:05:37.412Z,998.4
2017-07-14T00:05:57.746Z,998.4
2017-07-14T00:06:18.069Z,998.4
2017-07-14T00:06:38.389Z,998.4
2017-07-14T00:07:13.293Z,998.3
2017-07-14T00:07:33.564Z,998.4
2017-07-14T00:07:53.863Z,998.4
2017-07-14T00:08:14.130Z,998.4
2017-07-14T00:08:34.386Z,998.4
2017-07-14T00:08:54.638Z,998.4
2017-07-14T00:09:14.912Z,998.3
2017-07-14T00:09:35.162Z,998.4
2017-07-14T00:09:55.469Z,998.3
2017-07-14T00:10:15.760Z,998.4
2017-07-14T00:10:36.124Z,998.3
2017-07-14T00:10:56.401Z,998.3
2017-07-14T00:11:16.672Z,998.3
2017-07-14T00:11:37.006Z,998.3
2017-07-14T00:11:57.278Z,998.3
2017-07-14T00:12:17.538Z,998.3
2017-07-14T00:12:37.799Z,998.3
2017-07-14T00:12:58.097Z,998.3
2017-07-14T00:13:18.413Z,998.3
2017-07-14T00:13:38.677Z,998.3
2017-07-14T00:13:58.988Z,998.3
2017-07-14T00:14:19.312Z,998.3
2017-07-14T00:14:39.580Z,998.3
2017-07-14T00:14:59.859Z,998.3
2017-07-14T00:15:20.142Z,998.3
2017-07-14T00:15:40.407Z,998.3
2017-07-14T00:16:00.679Z,998.3
2017-07-14T00:16:20.939Z,998.3
2017-07-14T00:16:41.221Z,998.3
2017-07-14T00:17:01.477Z,998.3
2017-07-14T00:17:21.847Z,998.3
2017-07-14T00:17:42.111Z,998.3
2017-07-14T00:18:02.397Z,998.3
2017-07-14T00:18:22.677Z,998.2
2017-07-14T00:18:42.948Z,998.3
2017-07-14T00:19:03.242Z,998.2
2017-07-14T00:19:23.544Z,998.2
2017-07-14T00:19:43.889Z,998.2
2017-07-14T00:20:04.181Z,998.3
2017-07-14T00:20:24.430Z,998.2
2017-07-14T00:20:44.694Z,998.2
2017-07-14T00:21:04.992Z,998.2
2017-07-14T00:21:25.251Z,998.2
2017-07-14T00:21:45.505Z,998.2
2017-07-14T00:22:05.750Z,998.2
2017-07-14T00:22:26.079Z,998.2
2017-07-14T00:22:46.360Z,998.2
2017-07-14T00:23:06.629Z,998.2
2017-07-14T00:23:26.911Z,998.2
2017-07-14T00:23:47.162Z,998.2
2017-07-14T00:24:07.413Z,998.2
2017-07-14T00:24:27.672Z,998.2
2017-07-14T00:24:47.920Z,998.2
2017-07-14T00:25:08.198Z,998.2
2017-07-14T00:25:28.456Z,998.2
2017-07-14T00:25:48.721Z,998.2
2017-07-14T00:26:08.967Z,998.2
2017-07-14T00:26:29.249Z,998.2
2017-07-14T00:26:49.516Z,998.2
2017-07-14T00:27:10.076Z,998.2
2017-07-14T00:27:30.396Z,998.2
2017-07-14T00:27:50.734Z,998.2
2017-07-14T00:28:10.995Z,998.2
2017-07-14T00:28:31.290Z,998.2
2017-07-14T00:28:51.591Z,998.2
2017-07-14T00:29:11.912Z,998.2
2017-07-14T00:29:32.162Z,998.2
2017-07-14T00:29:52.456Z,998.2
2017-07-14T00:30:12.737Z,998.2
2017-07-14T00:30:33.019Z,998.2
2017-07-14T00:30:53.304Z,998.2
2017-07-14T00:31:13.572Z,998.2
2017-07-14T00:31:33.837Z,998.2
2017-07-14T00:31:54.106Z,998.2
2017-07-14T00:32:14.419Z,998.2
2017-07-14T00:32:34.762Z,998.2
2017-07-14T00:32:55.022Z,998.2
2017-07-14T00:33:15.329Z,998.2
2017-07-14T00:33:35.604Z,998.2
2017-07-14T00:33:55.869Z,998.2
2017-07-14T00:34:16.187Z,998.2
2017-07-14T00:34:36.463Z,998.1
2017-07-14T00:34:56.728Z,998.2
2017-07-14T00:35:17.044Z,998.2
2017-07-14T00:35:37.317Z,998.2
2017-07-14T00:35:57.583Z,998.1
2017-07-14T00:36:17.855Z,998.2
2017-07-14T00:36:38.130Z,998.2
2017-07-14T00:36:58.392Z,998.2
2017-07-14T00:37:18.651Z,998.2
2017-07-14T00:37:38.932Z,998.2
2017-07-14T00:37:59.185Z,998.2
2017-07-14T00:38:19.437Z,998.2
2017-07-14T00:38:39.732Z,998.2
2017-07-14T00:39:00.016Z,998.1
2017-07-14T00:39:20.295Z,998.1
2017-07-14T00:39:40.550Z,998.1
2017-07-14T00:40:00.815Z,998.1
2017-07-14T00:40:21.064Z,998.1
2017-07-14T00:40:41.376Z,998.1
2017-07-14T00:41:01.676Z,998.1
2017-07-14T00:41:21.959Z,998.1
2017-07-14T00:41:42.215Z,998.1
2017-07-14T00:42:02.476Z,998.1
2017-07-14T00:42:22.731Z,998.1
2017-07-14T00:42:43.000Z,998.1
2017-07-14T00:43:03.344Z,998.1
2017-07-14T00:43:23.663Z,998.1
2017-07-14T00:43:43.958Z,998.1
2017-07-14T00:44:04.228Z,998.1
2017-07-14T00:44:24.483Z,998.1
2017-07-14T00:44:44.765Z,998.1
2017-07-14T00:45:05.039Z,998.1
2017-07-14T00:45:25.293Z,998.1
2017-07-14T00:45:45.613Z,998.1
2017-07-14T00:46:05.912Z,998.1
2017-07-14T00:46:26.261Z,998.1
2017-07-14T00:46:46.523Z,998.1
2017-07-14T00:47:06.821Z,998.1
2017-07-14T00:47:27.079Z,998.1
2017-07-14T00:47:47.392Z,998.1
2017-07-14T00:48:07.688Z,998.1
2017-07-14T00:48:28.028Z,998.1
2017-07-14T00:48:48.299Z,998.1
2017-07-14T00:49:08.615Z,998.1
2017-07-14T00:49:28.867Z,998.1
2017-07-14T00:49:49.130Z,998
2017-07-14T00:50:09.390Z,998.1
2017-07-14T00:50:29.704Z,998.1
2017-07-14T00:50:49.975Z,998.1
2017-07-14T00:51:10.241Z,998.1
2017-07-14T00:51:30.484Z,998.1
2017-07-14T00:51:50.848Z,998.1
2017-07-14T00:52:11.137Z,998.1
2017-07-14T00:52:31.407Z,998.1
2017-07-14T00:52:51.726Z,998
2017-07-14T00:53:12.098Z,998
2017-07-14T00:53:32.361Z,998.1
2017-07-14T00:53:52.611Z,998
2017-07-14T00:54:12.858Z,998
2017-07-14T00:54:33.146Z,998.1
2017-07-14T00:54:53.406Z,998
2017-07-14T00:55:13.672Z,998
2017-07-14T00:55:33.944Z,998
2017-07-14T00:55:54.206Z,998
2017-07-14T00:56:14.490Z,998
2017-07-14T00:56:34.753Z,998
2017-07-14T00:56:55.057Z,998
2017-07-14T00:57:15.336Z,998
2017-07-14T00:57:35.602Z,998
2017-07-14T00:57:55.907Z,998
2017-07-14T00:58:16.201Z,998
2017-07-14T00:58:36.466Z,998
2017-07-14T00:58:56.744Z,998
2017-07-14T00:59:17.065Z,998
2017-07-14T00:59:37.334Z,998
2017-07-14T00:59:57.617Z,998
2017-07-14T01:00:17.857Z,998.1
2017-07-14T01:00:38.133Z,998.1
2017-07-14T01:00:58.422Z,998.1
2017-07-14T01:01:18.744Z,998
2017-07-14T01:01:39.007Z,998.1
2017-07-14T01:01:59.288Z,998
2017-07-14T01:02:19.561Z,998
2017-07-14T01:02:39.820Z,998
2017-07-14T01:03:00.130Z,998
2017-07-14T01:03:20.400Z,998
2017-07-14T01:03:40.656Z,998
2017-07-14T01:04:00.939Z,998
2017-07-14T01:04:21.200Z,998
2017-07-14T01:04:41.522Z,998
2017-07-14T01:05:01.809Z,998
2017-07-14T01:05:22.083Z,998
2017-07-14T01:05:42.354Z,998.1
2017-07-14T01:06:02.705Z,998.1
2017-07-14T01:06:23.025Z,998.1
2017-07-14T01:06:43.294Z,998.1
2017-07-14T01:07:03.576Z,998.1
2017-07-14T01:07:23.906Z,998
2017-07-14T01:07:44.165Z,998.1
2017-07-14T01:08:04.433Z,998
2017-07-14T01:08:24.798Z,998.1
2017-07-14T01:08:45.071Z,998
2017-07-14T01:09:05.330Z,998
2017-07-14T01:09:25.604Z,998
2017-07-14T01:09:45.904Z,998
2017-07-14T01:10:06.207Z,998
2017-07-14T01:10:26.520Z,998
2017-07-14T01:10:46.832Z,998
2017-07-14T01:11:07.099Z,998
2017-07-14T01:11:27.407Z,998
2017-07-14T01:11:47.678Z,998
2017-07-14T01:12:07.994Z,998
2017-07-14T01:12:28.297Z,998.1
2017-07-14T01:12:48.561Z,998
2017-07-14T01:13:08.820Z,998.1
2017-07-14T01:13:29.071Z,998
2017-07-14T01:13:50.368Z,998
2017-07-14T01:14:10.672Z,998.1
2017-07-14T01:14:30.933Z,998.1
2017-07-14T01:14:51.210Z,998.1
2017-07-14T01:15:11.542Z,998
2017-07-14T01:15:31.812Z,998.1
2017-07-14T01:15:52.076Z,998.1
2017-07-14T01:16:12.390Z,998.1
2017-07-14T01:16:32.707Z,998.1
2017-07-14T01:16:52.977Z,998.1
2017-07-14T01:17:13.361Z,998.1
2017-07-14T01:17:33.663Z,998.1
2017-07-14T01:17:53.941Z,998.1
2017-07-14T01:18:14.213Z,998.1
2017-07-14T01:18:34.479Z,998.1
2017-07-14T01:18:54.742Z,998.1
2017-07-14T01:19:15.028Z,998.1
2017-07-14T01:19:35.295Z,998.1
2017-07-14T01:19:55.554Z,998.1
2017-07-14T01:20:15.914Z,998.1
2017-07-14T01:20:36.176Z,998.1
2017-07-14T01:20:56.431Z,998.1
2017-07-14T01:21:16.709Z,998
2017-07-14T01:21:37.044Z,998.1
2017-07-14T01:21:57.303Z,998.1
2017-07-14T01:22:17.614Z,998.1
2017-07-14T01:22:37.926Z,998.1
2017-07-14T01:22:58.276Z,998
2017-07-14T01:23:18.600Z,998.1
2017-07-14T01:23:38.850Z,998
2017-07-14T01:23:59.164Z,998
2017-07-14T01:24:19.415Z,998
2017-07-14T01:24:39.719Z,998
2017-07-14T01:24:59.988Z,998.1
2017-07-14T01:25:20.259Z,998.1
2017-07-14T01:25:40.512Z,998.1
2017-07-14T01:26:00.806Z,998
2017-07-14T01:26:21.099Z,998.1
2017-07-14T01:26:41.374Z,998
2017-07-14T01:27:01.635Z,998.1
2017-07-14T01:27:21.940Z,998.1
2017-07-14T01:27:42.208Z,998.1
2017-07-14T01:28:02.472Z,998
2017-07-14T01:28:22.735Z,998.1
2017-07-14T01:28:43.030Z,998
2017-07-14T01:29:03.323Z,998.1
2017-07-14T01:29:23.581Z,998
2017-07-14T01:29:43.886Z,998
2017-07-14T01:30:04.209Z,998.1
2017-07-14T01:30:24.494Z,998
2017-07-14T01:30:44.846Z,998
2017-07-14T01:31:05.114Z,998
2017-07-14T01:31:25.396Z,998
2017-07-14T01:31:45.727Z,998
2017-07-14T01:32:05.993Z,998
2017-07-14T01:32:26.259Z,998
2017-07-14T01:32:46.533Z,998
2017-07-14T01:33:06.844Z,998
2017-07-14T01:33:27.104Z,998
2017-07-14T01:33:47.361Z,998
2017-07-14T01:34:07.665Z,997.9
2017-07-14T01:34:27.939Z,998
2017-07-14T01:34:48.197Z,998
2017-07-14T01:35:08.513Z,997.9
2017-07-14T01:35:28.792Z,998
2017-07-14T01:35:49.034Z,998
2017-07-14T01:36:09.362Z,997.9
2017-07-14T01:36:29.632Z,997.9
2017-07-14T01:36:49.904Z,997.9
2017-07-14T01:37:10.200Z,997.9
2017-07-14T01:37:30.472Z,997.9
2017-07-14T01:37:50.729Z,997.9
2017-07-14T01:38:11.040Z,997.9
2017-07-14T01:38:31.297Z,997.9
2017-07-14T01:38:51.605Z,997.9
2017-07-14T01:39:11.911Z,997.9
2017-07-14T01:39:32.173Z,997.9
2017-07-14T01:39:52.489Z,997.9
2017-07-14T01:40:12.762Z,997.9
2017-07-14T01:40:33.028Z,997.9
2017-07-14T01:40:53.301Z,997.9
2017-07-14T01:41:13.566Z,997.9
2017-07-14T01:41:33.837Z,997.9
2017-07-14T01:41:54.146Z,997.8
2017-07-14T01:42:14.416Z,997.9
2017-07-14T01:42:34.712Z,997.9
2017-07-14T01:42:54.983Z,997.9
2017-07-14T01:43:15.249Z,997.9
2017-07-14T01:43:35.539Z,997.9
2017-07-14T01:43:55.842Z,997.9
2017-07-14T01:44:16.097Z,997.9
2017-07-14T01:44:36.394Z,997.8
2017-07-14T01:44:56.679Z,997.9
2017-07-14T01:45:16.935Z,997.9
2017-07-14T01:45:37.238Z,997.9
2017-07-14T01:45:57.498Z,997.9
2017-07-14T01:46:17.755Z,997.9
2017-07-14T01:46:38.124Z,997.9
2017-07-14T01:46:58.384Z,997.8
2017-07-14T01:47:18.653Z,997.9
2017-07-14T01:47:38.924Z,997.9
2017-07-14T01:47:59.185Z,997.9
2017-07-14T01:48:19.447Z,997.8
2017-07-14T01:48:39.701Z,997.9
2017-07-14T01:48:59.974Z,997.9
2017-07-14T01:49:20.247Z,997.9
2017-07-14T01:49:40.512Z,997.9
2017-07-14T01:50:00.769Z,997.9
2017-07-14T01:50:21.020Z,997.9
2017-07-14T01:50:41.295Z,997.9
2017-07-14T01:51:01.530Z,997.9
2017-07-14T01:51:21.807Z,997.9
2017-07-14T01:51:42.116Z,997.9
2017-07-14T01:52:02.385Z,997.9
2017-07-14T01:52:22.695Z,997.9
2017-07-14T01:52:43.001Z,997.9
2017-07-14T01:53:03.323Z,997.9
2017-07-14T01:53:23.575Z,997.8
2017-07-14T01:53:43.840Z,997.9
2017-07-14T01:54:04.095Z,997.8
2017-07-14T01:54:24.387Z,997.9
2017-07-14T01:54:44.640Z,997.8
2017-07-14T01:55:04.903Z,997.8
2017-07-14T01:55:25.291Z,997.8
2017-07-14T01:55:45.584Z,997.8
2017-07-14T01:56:05.886Z,997.8
2017-07-14T01:56:26.164Z,997.8
2017-07-14T01:56:46.419Z,997.8
2017-07-14T01:57:06.692Z,997.8
2017-07-14T01:57:26.946Z,997.8
2017-07-14T01:57:47.218Z,997.8
2017-07-14T01:58:07.571Z,997.8
2017-07-14T01:58:27.822Z,997.8
2017-07-14T01:58:48.097Z,997.8
2017-07-14T01:59:08.368Z,997.8
2017-07-14T01:59:28.672Z,997.8
2017-07-14T01:59:48.940Z,997.8
2017-07-14T02:00:09.246Z,997.8
2017-07-14T02:00:29.609Z,997.8
2017-07-14T02:00:49.913Z,997.8
2017-07-14T02:01:10.240Z,997.8
2017-07-14T02:01:30.552Z,997.8
2017-07-14T02:01:50.806Z,997.8
2017-07-14T02:02:11.052Z,997.7
2017-07-14T02:02:31.320Z,997.7
2017-07-14T02:02:51.597Z,997.7
2017-07-14T02:03:11.860Z,997.7
2017-07-14T02:03:32.187Z,997.7
2017-07-14T02:03:52.421Z,997.7
2017-07-14T02:04:12.680Z,997.7
2017-07-14T02:04:32.959Z,997.7
2017-07-14T02:04:53.213Z,997.7
2017-07-14T02:05:13.479Z,997.7
2017-07-14T02:05:33.750Z,997.6
2017-07-14T02:05:54.017Z,997.7
2017-07-14T02:06:14.282Z,997.7
2017-07-14T02:06:34.528Z,997.7
2017-07-14T02:06:54.782Z,997.7
2017-07-14T02:07:15.153Z,997.6
2017-07-14T02:07:35.520Z,997.7
2017-07-14T02:07:55.784Z,997.7
2017-07-14T02:08:16.050Z,997.6
2017-07-14T02:08:36.290Z,997.7
2017-07-14T02:08:56.569Z,997.7
2017-07-14T02:09:16.837Z,997.7
2017-07-14T02:09:37.087Z,997.7
2017-07-14T02:09:57.356Z,997.7
2017-07-14T02:10:17.618Z,997.7
2017-07-14T02:10:37.917Z,997.7
2017-07-14T02:10:58.217Z,997.7
2017-07-14T02:11:18.517Z,997.7
2017-07-14T02:11:38.785Z,997.7
2017-07-14T02:11:59.039Z,997.7
2017-07-14T02:12:19.302Z,997.7
2017-07-14T02:12:39.650Z,997.7
2017-07-14T02:12:59.914Z,997.7
2017-07-14T02:13:20.261Z,997.7
2017-07-14T02:13:40.522Z,997.7
2017-07-14T02:14:00.810Z,997.7
2017-07-14T02:14:21.084Z,997.7
2017-07-14T02:14:41.341Z,997.7
2017-07-14T02:15:01.592Z,997.7
2017-07-14T02:15:21.948Z,997.7
2017-07-14T02:15:42.221Z,997.7
2017-07-14T02:16:02.492Z,997.7
2017-07-14T02:16:22.764Z,997.7
2017-07-14T02:16:43.039Z,997.7
2017-07-14T02:17:03.386Z,997.7
2017-07-14T02:17:23.680Z,997.7
2017-07-14T02:17:44.029Z,997.7
2017-07-14T02:18:04.320Z,997.6
2017-07-14T02:18:24.668Z,997.6
2017-07-14T02:18:44.969Z,997.7
2017-07-14T02:19:05.219Z,997.7
2017-07-14T02:19:25.491Z,997.7
2017-07-14T02:19:45.767Z,997.6
2017-07-14T02:20:06.043Z,997.6
2017-07-14T02:20:26.343Z,997.6
2017-07-14T02:20:46.686Z,997.6
2017-07-14T02:21:06.994Z,997.6
2017-07-14T02:21:27.301Z,997.6
2017-07-14T02:21:47.554Z,997.6
2017-07-14T02:22:07.904Z,997.6
2017-07-14T02:22:28.256Z,997.6
2017-07-14T02:22:48.560Z,997.7
2017-07-14T02:23:08.873Z,997.6
2017-07-14T02:23:29.196Z,997.7
2017-07-14T02:23:49.502Z,997.7
2017-07-14T02:24:09.791Z,997.6
2017-07-14T02:24:30.061Z,997.6
2017-07-14T02:24:50.335Z,997.7
2017-07-14T02:25:10.592Z,997.7
2017-07-14T02:25:30.889Z,997.7
2017-07-14T02:25:51.184Z,997.6
2017-07-14T02:26:11.443Z,997.6
2017-07-14T02:26:31.701Z,997.6
2017-07-14T02:26:51.948Z,997.6
2017-07-14T02:27:12.202Z,997.6
2017-07-14T02:27:32.551Z,997.6
2017-07-14T02:27:52.805Z,997.6
2017-07-14T02:28:13.115Z,997.6
2017-07-14T02:28:33.361Z,997.6
2017-07-14T02:28:53.618Z,997.6
2017-07-14T02:29:13.882Z,997.6
2017-07-14T02:29:34.137Z,997.7
2017-07-14T02:29:54.383Z,997.6
2017-07-14T02:30:14.717Z,997.6
2017-07-14T02:30:35.042Z,997.6
2017-07-14T02:30:55.384Z,997.7
2017-07-14T02:31:15.645Z,997.6
2017-07-14T02:31:35.902Z,997.6
2017-07-14T02:31:56.171Z,997.6
2017-07-14T02:32:16.469Z,997.6
2017-07-14T02:32:36.781Z,997.6
2017-07-14T02:32:57.083Z,997.6
2017-07-14T02:33:17.385Z,997.6
2017-07-14T02:33:37.711Z,997.6
2017-07-14T02:33:58.095Z,997.6
2017-07-14T02:34:18.365Z,997.6
2017-07-14T02:34:38.660Z,997.6
2017-07-14T02:34:58.913Z,997.6
2017-07-14T02:35:19.170Z,997.6
2017-07-14T02:35:39.432Z,997.6
2017-07-14T02:35:59.831Z,997.6
2017-07-14T02:36:20.099Z,997.6
2017-07-14T02:36:40.359Z,997.5
2017-07-14T02:37:00.618Z,997.6
2017-07-14T02:37:20.871Z,997.6
2017-07-14T02:37:41.140Z,997.6
2017-07-14T02:38:01.488Z,997.6
2017-07-14T02:38:21.789Z,997.6
2017-07-14T02:38:42.104Z,997.5
2017-07-14T02:39:02.417Z,997.5
2017-07-14T02:39:22.692Z,997.6
2017-07-14T02:39:42.997Z,997.5
2017-07-14T02:40:03.287Z,997.6
2017-07-14T02:40:23.554Z,997.6
2017-07-14T02:40:43.828Z,997.6
2017-07-14T02:41:04.151Z,997.6
2017-07-14T02:41:24.414Z,997.6
2017-07-14T02:41:44.681Z,997.6
2017-07-14T02:42:04.997Z,997.6
2017-07-14T02:42:25.284Z,997.6
2017-07-14T02:42:45.588Z,997.6
2017-07-14T02:43:05.873Z,997.6
2017-07-14T02:43:26.127Z,997.6
2017-07-14T02:43:46.382Z,997.6
2017-07-14T02:44:06.688Z,997.6
2017-07-14T02:44:27.030Z,997.6
2017-07-14T02:44:47.315Z,997.6
2017-07-14T02:45:07.611Z,997.6
2017-07-14T02:45:27.876Z,997.6
2017-07-14T02:45:48.188Z,997.6
2017-07-14T02:46:08.507Z,997.6
2017-07-14T02:46:28.758Z,997.6
2017-07-14T02:47:15.468Z,997.6
2017-07-14T02:47:35.752Z,997.6
2017-07-14T02:47:56.101Z,997.6
2017-07-14T02:48:16.410Z,997.6
2017-07-14T02:48:36.730Z,997.5
2017-07-14T02:48:57.031Z,997.6
2017-07-14T02:49:17.293Z,997.6
2017-07-14T02:49:37.558Z,997.6
2017-07-14T02:49:57.834Z,997.6
2017-07-14T02:50:18.143Z,997.5
2017-07-14T02:50:38.406Z,997.5
2017-07-14T02:50:58.713Z,997.5
2017-07-14T02:51:18.975Z,997.5
2017-07-14T02:51:39.244Z,997.6
2017-07-14T02:51:59.517Z,997.6
2017-07-14T02:52:19.813Z,997.5
2017-07-14T02:52:40.067Z,997.5
2017-07-14T02:53:00.332Z,997.5
2017-07-14T02:53:20.583Z,997.6
2017-07-14T02:53:40.852Z,997.5
2017-07-14T02:54:01.201Z,997.5
2017-07-14T02:54:21.546Z,997.5
2017-07-14T02:54:41.797Z,997.5
2017-07-14T02:55:02.087Z,997.5
2017-07-14T02:55:22.371Z,997.5
2017-07-14T02:55:42.637Z,997.5
2017-07-14T02:56:02.902Z,997.6
2017-07-14T02:56:23.173Z,997.5
2017-07-14T02:56:43.449Z,997.5
2017-07-14T02:57:03.729Z,997.5
2017-07-14T02:57:23.984Z,997.5
2017-07-14T02:57:44.337Z,997.5
2017-07-14T02:58:04.627Z,997.5
2017-07-14T02:58:24.880Z,997.5
2017-07-14T02:58:45.142Z,997.5
2017-07-14T02:59:05.404Z,997.5
2017-07-14T02:59:25.668Z,997.5
2017-07-14T02:59:45.944Z,997.5
2017-07-14T03:00:06.261Z,997.5
2017-07-14T03:00:26.526Z,997.5
2017-07-14T03:00:46.788Z,997.5
2017-07-14T03:01:07.049Z,997.5
2017-07-14T03:01:27.299Z,997.5
2017-07-14T03:01:47.568Z,997.5
2017-07-14T03:02:07.848Z,997.5
2017-07-14T03:02:28.132Z,997.5
2017-07-14T03:02:48.384Z,997.5
2017-07-14T03:03:08.662Z,997.5
2017-07-14T03:03:28.918Z,997.5
2017-07-14T03:03:49.225Z,997.5
2017-07-14T03:04:09.481Z,997.5
2017-07-14T03:04:29.829Z,997.5
2017-07-14T03:04:50.091Z,997.5
2017-07-14T03:05:10.361Z,997.5
2017-07-14T03:05:30.666Z,997.5
2017-07-14T03:05:50.925Z,997.5
2017-07-14T03:06:11.190Z,997.5
2017-07-14T03:06:31.486Z,997.5
2017-07-14T03:06:51.742Z,997.5
2017-07-14T03:07:11.988Z,997.5
2017-07-14T03:08:50.959Z,997.5
2017-07-14T03:09:11.319Z,997.5
2017-07-14T03:09:31.637Z,997.5
2017-07-14T03:09:51.905Z,997.5
2017-07-14T03:10:12.166Z,997.5
2017-07-14T03:10:32.474Z,997.5
2017-07-14T03:10:52.746Z,997.5
2017-07-14T03:11:12.997Z,997.5
2017-07-14T03:11:33.282Z,997.5
2017-07-14T03:11:53.575Z,997.5
2017-07-14T03:12:13.842Z,997.4
2017-07-14T03:12:34.105Z,997.4
2017-07-14T03:12:54.363Z,997.5
2017-07-14T03:13:14.623Z,997.4
2017-07-14T03:13:34.927Z,997.4
2017-07-14T03:13:55.207Z,997.5
2017-07-14T03:14:15.469Z,997.4
2017-07-14T03:14:35.726Z,997.4
2017-07-14T03:14:55.974Z,997.4
2017-07-14T03:15:16.234Z,997.4
2017-07-14T03:15:36.566Z,997.4
2017-07-14T03:15:56.870Z,997.4
2017-07-14T03:16:17.182Z,997.5
2017-07-14T03:16:37.439Z,997.5
2017-07-14T03:16:57.747Z,997.5
2017-07-14T03:17:18.056Z,997.5
2017-07-14T03:17:38.401Z,997.5
2017-07-14T03:17:58.660Z,997.4
2017-07-14T03:18:18.913Z,997.5
2017-07-14T03:18:39.176Z,997.4
2017-07-14T03:18:59.520Z,997.5
2017-07-14T03:19:19.780Z,997.5
2017-07-14T03:19:40.078Z,997.5
2017-07-14T03:20:00.399Z,997.4
2017-07-14T03:20:20.658Z,997.5
2017-07-14T03:20:41.097Z,997.4
2017-07-14T03:21:01.693Z,997.4
2017-07-14T03:21:22.194Z,997.4
2017-07-14T03:21:42.471Z,997.4
2017-07-14T03:22:02.739Z,997.4
2017-07-14T03:22:22.999Z,997.4
2017-07-14T03:22:43.268Z,997.4
2017-07-14T03:23:03.539Z,997.5
2017-07-14T03:23:24.102Z,997.4
2017-07-14T03:23:44.432Z,997.4
2017-07-14T03:24:04.724Z,997.4
2017-07-14T03:24:25.039Z,997.4
2017-07-14T03:24:45.323Z,997.4
2017-07-14T03:25:05.583Z,997.4
2017-07-14T03:25:25.871Z,997.4
2017-07-14T03:25:46.133Z,997.4
2017-07-14T03:26:06.410Z,997.4
2017-07-14T03:26:26.669Z,997.4
2017-07-14T03:26:46.935Z,997.4
2017-07-14T03:27:07.236Z,997.4
2017-07-14T03:27:27.512Z,997.4
2017-07-14T03:27:47.772Z,997.4
2017-07-14T03:28:08.049Z,997.4
2017-07-14T03:28:28.348Z,997.4
2017-07-14T03:28:48.617Z,997.4
2017-07-14T03:29:08.881Z,997.4
2017-07-14T03:29:29.238Z,997.4
2017-07-14T03:29:49.497Z,997.4
2017-07-14T03:30:09.841Z,997.4
2017-07-14T03:30:30.080Z,997.4
2017-07-14T03:30:50.392Z,997.4
2017-07-14T03:31:10.723Z,997.4
2017-07-14T03:31:30.981Z,997.4
2017-07-14T03:31:51.246Z,997.4
2017-07-14T03:32:11.533Z,997.4
2017-07-14T03:32:31.806Z,997.4
2017-07-14T03:32:52.070Z,997.4
2017-07-14T03:33:12.343Z,997.4
2017-07-14T03:33:32.661Z,997.4
2017-07-14T03:33:52.945Z,997.4
2017-07-14T03:34:13.266Z,997.4
2017-07-14T03:34:33.542Z,997.4
2017-07-14T03:34:53.819Z,997.4
2017-07-14T03:35:14.085Z,997.4
2017-07-14T03:35:34.356Z,997.4
2017-07-14T03:35:54.667Z,997.4
2017-07-14T03:36:14.944Z,997.4
2017-07-14T03:36:35.220Z,997.4
2017-07-14T03:36:55.485Z,997.4
2017-07-14T03:37:15.750Z,997.4
2017-07-14T03:37:36.014Z,997.4
2017-07-14T03:37:56.337Z,997.4
2017-07-14T03:38:16.642Z,997.4
2017-07-14T03:38:36.901Z,997.4
2017-07-14T03:38:57.182Z,997.4
2017-07-14T03:39:17.491Z,997.4
2017-07-14T03:39:37.752Z,997.4
2017-07-14T03:39:58.020Z,997.4
2017-07-14T03:40:18.358Z,997.4
2017-07-14T03:40:38.673Z,997.4
2017-07-14T03:40:58.978Z,997.4
2017-07-14T03:41:19.281Z,997.4
2017-07-14T03:41:39.555Z,997.4
2017-07-14T03:41:59.869Z,997.4
2017-07-14T03:42:20.137Z,997.4
2017-07-14T03:42:40.395Z,997.4
2017-07-14T03:43:00.687Z,997.4
2017-07-14T03:43:20.990Z,997.4
2017-07-14T03:43:41.257Z,997.4
2017-07-14T03:44:01.605Z,997.4
2017-07-14T03:44:21.876Z,997.3
2017-07-14T03:44:42.186Z,997.3
2017-07-14T03:45:02.468Z,997.3
2017-07-14T03:45:22.724Z,997.3
2017-07-14T03:45:43.037Z,997.3
2017-07-14T03:46:03.401Z,997.3
2017-07-14T03:46:23.676Z,997.3
2017-07-14T03:46:43.944Z,997.3
2017-07-14T03:47:04.228Z,997.3
2017-07-14T03:47:24.502Z,997.3
2017-07-14T03:47:44.807Z,997.4
2017-07-14T03:48:05.069Z,997.3
2017-07-14T03:48:25.330Z,997.3
2017-07-14T03:49:02.662Z,997.3
2017-07-14T03:49:22.922Z,997.4
2017-07-14T03:49:43.216Z,997.4
2017-07-14T03:50:03.528Z,997.4
2017-07-14T03:50:23.782Z,997.4
2017-07-14T03:50:44.051Z,997.4
2017-07-14T03:51:04.315Z,997.3
2017-07-14T03:51:24.590Z,997.4
2017-07-14T03:51:44.891Z,997.4
2017-07-14T03:52:05.157Z,997.4
2017-07-14T03:52:25.423Z,997.4
2017-07-14T03:52:45.703Z,997.4
2017-07-14T03:53:05.986Z,997.3
2017-07-14T03:53:26.288Z,997.4
2017-07-14T03:53:46.550Z,997.3
2017-07-14T03:54:06.820Z,997.3
2017-07-14T03:54:27.101Z,997.4
2017-07-14T03:54:47.365Z,997.3
2017-07-14T03:55:07.683Z,997.4
2017-07-14T03:55:27.951Z,997.4
2017-07-14T03:55:48.234Z,997.4
2017-07-14T03:56:08.559Z,997.4
2017-07-14T03:56:28.881Z,997.3
2017-07-14T03:56:49.192Z,997.4
2017-07-14T03:57:09.468Z,997.4
2017-07-14T03:57:29.761Z,997.3
2017-07-14T03:57:50.034Z,997.3
2017-07-14T03:58:10.303Z,997.4
2017-07-14T03:58:30.561Z,997.3
2017-07-14T03:58:50.832Z,997.3
2017-07-14T03:59:11.088Z,997.4
2017-07-14T03:59:31.451Z,997.3
2017-07-14T03:59:51.770Z,997.3
2017-07-14T04:00:12.088Z,997.3
2017-07-14T04:00:32.407Z,997.3
2017-07-14T04:00:52.680Z,997.3
2017-07-14T04:01:13.044Z,997.3
2017-07-14T04:01:33.320Z,997.3
2017-07-14T04:01:53.580Z,997.3
2017-07-14T04:02:13.831Z,997.3
2017-07-14T04:02:34.109Z,997.3
2017-07-14T04:02:54.392Z,997.3
2017-07-14T04:03:14.742Z,997.3
2017-07-14T04:03:35.016Z,997.3
2017-07-14T04:03:55.291Z,997.3
2017-07-14T04:04:15.551Z,997.3
2017-07-14T04:04:35.814Z,997.3
2017-07-14T04:04:56.117Z,997.3
2017-07-14T04:05:16.440Z,997.3
2017-07-14T04:05:36.749Z,997.3
2017-07-14T04:05:57.057Z,997.3
2017-07-14T04:06:17.337Z,997.3
2017-07-14T04:06:37.623Z,997.3
2017-07-14T04:06:57.938Z,997.3
2017-07-14T04:07:18.222Z,997.2
2017-07-14T04:07:38.502Z,997.2
2017-07-14T04:07:58.783Z,997.3
2017-07-14T04:08:19.093Z,997.3
2017-07-14T04:08:39.376Z,997.2
2017-07-14T04:08:59.642Z,997.2
2017-07-14T04:09:19.912Z,997.2
2017-07-14T04:09:40.175Z,997.3
2017-07-14T04:10:00.488Z,997.3
2017-07-14T04:10:20.735Z,997.3
2017-07-14T04:10:40.993Z,997.3
2017-07-14T04:11:01.254Z,997.3
2017-07-14T04:11:21.560Z,997.3
2017-07-14T04:11:41.830Z,997.3
2017-07-14T04:12:02.112Z,997.3
2017-07-14T04:12:22.371Z,997.3
2017-07-14T04:12:42.683Z,997.3
2017-07-14T04:13:03.042Z,997.3
2017-07-14T04:13:23.436Z,997.3
2017-07-14T04:13:43.725Z,997.3
2017-07-14T04:14:04.023Z,997.3
2017-07-14T04:14:24.402Z,997.3
2017-07-14T04:14:44.718Z,997.3
2017-07-14T04:15:04.976Z,997.3
2017-07-14T04:15:25.240Z,997.3
2017-07-14T04:15:45.511Z,997.3
2017-07-14T04:16:05.775Z,997.3
2017-07-14T04:16:26.055Z,997.3
2017-07-14T04:16:46.322Z,997.2
2017-07-14T04:17:06.624Z,997.3
2017-07-14T04:17:26.936Z,997.3
2017-07-14T04:17:47.246Z,997.3
2017-07-14T04:18:07.523Z,997.3
2017-07-14T04:18:27.785Z,997.3
2017-07-14T04:18:48.039Z,997.3
2017-07-14T04:19:08.313Z,997.3
2017-07-14T04:19:28.565Z,997.3
2017-07-14T04:19:48.871Z,997.3
2017-07-14T04:20:09.140Z,997.3
2017-07-14T04:20:29.527Z,997.3
2017-07-14T04:20:49.798Z,997.3
2017-07-14T04:21:10.150Z,997.3
2017-07-14T04:21:30.409Z,997.3
2017-07-14T04:21:50.767Z,997.3
2017-07-14T04:22:11.056Z,997.3
2017-07-14T04:22:31.326Z,997.3
2017-07-14T04:22:51.623Z,997.3
2017-07-14T04:23:11.879Z,997.2
2017-07-14T04:23:32.199Z,997.3
2017-07-14T04:23:52.468Z,997.3
2017-07-14T04:24:12.723Z,997.3
2017-07-14T04:24:33.023Z,997.3
2017-07-14T04:24:53.280Z,997.3
2017-07-14T04:25:13.598Z,997.3